• Join FlightAware (Why Join?)
  • Login
  • US Flag 
Rudolph Flight #1: Arrived! 
08:57PM EST


 

Airport Tracker/Info


-or-


 

Live Flight TrackerFlight Track Log ✈ DAL6057 ✈ 10-Apr-2013 ✈ KCMH - KDTW

Flight Track Log - Related Links

Times and Time Zones

All times are in EDT time to prevent confusion due to time zone crossing. See the DAL6057 flight status page for this flight to view local times or setup timezone preferences in your user account.

Time Position Orientation Groundspeed Altitude Reporting Facility
EDT Latitude Longitude Course Direction KTS MPH feet Rate Location/Type
06:40AM 40.0061 -82.9844 358° North 191 220 3,900  Level Indianapolis Center
06:41AM 40.0661 -82.9872 358° North 264 304 6,300 2,220 Climbing Indianapolis Center
06:42AM 40.1261 -82.9144 43° Northeast 292 336 8,500 2,040 Climbing Indianapolis Center
06:43AM 40.1925 -82.8419 40° Northeast 308 354 10,500 1,920 Climbing Indianapolis Center
06:44AM 40.2750 -82.7514 40° Northeast 336 387 12,400 1,680 Climbing Indianapolis Center
06:45AM 40.3506 -82.6656 41° Northeast 352 405 14,000 1,200 Climbing Indianapolis Center
06:46AM 40.4264 -82.5861 39° Northeast 347 399 14,900 480 Climbing Indianapolis Center
06:47AM 40.5128 -82.5461 19° North 326 375 15,000  Climbing Indianapolis Center
06:48AM 40.6008 -82.5078 18° North 330 380 15,000  Level Indianapolis Center
06:49AM 40.6600 -82.4825 18° North 323 372 15,000  Level Cleveland Center
06:50AM 40.7411 -82.5014 350° North 312 359 15,000  Level Cleveland Center
06:51AM 40.8194 -82.5475 336° Northwest 300 345 15,000  Level Cleveland Center
06:52AM 40.8939 -82.5883 337° Northwest 300 345 15,000  Level Cleveland Center
06:53AM 40.9742 -82.6347 336° Northwest 295 339 15,000  Level Cleveland Center
06:54AM 41.0506 -82.6783 337° Northwest 295 339 15,000  Level Cleveland Center
06:55AM 41.1228 -82.7194 337° Northwest 295 339 15,000  Level Cleveland Center
06:56AM 41.1950 -82.7631 336° Northwest 290 334 15,000  Level Cleveland Center
06:57AM 41.2672 -82.8042 337° Northwest 290 334 15,000  Level Cleveland Center
06:58AM 41.3414 -82.8483 336° Northwest 285 328 15,000  Level Cleveland Center
06:59AM 41.4133 -82.8894 337° Northwest 279 321 15,000 -60 Level Cleveland Center
07:00AM 41.4711 -82.9222 337° Northwest 289 333 14,900 -480 Descending Cleveland Center
07:00AM 41.5186 -82.9489 337° Northwest 293 337 14,400 -960 Descending Cleveland Center
07:01AM 41.5536 -82.9694 336° Northwest 289 333 13,800 -1,560 Descending Cleveland Center
07:02AM 41.6031 -82.9992 336° Northwest 294 338 12,700 -1,620 Descending Cleveland Center
07:02AM 41.6278 -83.0139 336° Northwest 289 333 12,200 -1,320 Descending Cleveland Center
07:03AM 41.6914 -83.0525 336° Northwest 279 321 11,100 -1,200 Descending Cleveland Center
07:03AM 41.7058 -83.0614 335° Northwest 289 333 11,000 -180 Descending Cleveland Center
07:03AM 41.7408 -83.0822 336° Northwest 281 323 11,000 -900 Level Cleveland Center
07:04AM 41.7803 -83.0922 349° North 284 327 10,100 -1,560 Descending Cleveland Center
07:05AM 41.8194 -83.1075 344° North 267 307 9,300 -1,500 Descending Cleveland Center
07:05AM 41.8439 -83.1336 321° Northwest 266 306 8,600 -1,920 Descending Cleveland Center
07:06AM 41.8828 -83.1769 320° Northwest 257 296 7,200 -1,620 Descending Cleveland Center
07:06AM 41.8925 -83.1997 300° West 249 287 7,000 -600 Descending Cleveland Center
07:07AM 41.9144 -83.2481 301° West 208 239 6,600 -600 Descending Cleveland Center
07:07AM 41.9222 -83.2650 302° West 226 260 6,400 -1,080 Descending Cleveland Center
07:08AM 41.9439 -83.3192 298° West 202 232 5,400 -1,320 Descending Cleveland Center
07:09AM 41.9697 -83.3733 303° West 190 219 4,200 -1,260 Descending Cleveland Center
07:09AM 41.9797 -83.3933 304° West 200 230 3,900 -1,140 Descending Cleveland Center
07:10AM 42.0014 -83.4444 300° West 207 238 3,100 -540 Descending Cleveland Center
07:11AM 42.0681 -83.4419 North 228 262 3,000 -420 Descending Cleveland Center
07:12AM 42.1233 -83.4081 24° Northeast 208 239 2,300 -840 Descending Cleveland Center
07:13AM 42.1636 -83.3761 30° Northeast 139 160 1,400 -900 Descending Cleveland Center
07:15AM 42.2000 -83.3500 North  Level FlightAware Approximate
07:22AM 42.2124 -83.3534 North  Level Estimated
07:23AM 42.2124 -83.3534 North  Level Estimated